sensor_id;sensor_type;location;lat;lon;timestamp;P1;durP1;ratioP1;P2;durP2;ratioP2
29906;SDS011;16776;50.958;10.994;2023-03-04T00:01:49;5.35;;;3.00;;
29906;SDS011;16776;50.958;10.994;2023-03-04T00:04:16;6.95;;;3.67;;
29906;SDS011;16776;50.958;10.994;2023-03-04T00:06:42;4.75;;;3.00;;
29906;SDS011;16776;50.958;10.994;2023-03-04T00:09:09;5.97;;;3.45;;
29906;SDS011;16776;50.958;10.994;2023-03-04T00:11:37;5.20;;;2.70;;
29906;SDS011;16776;50.958;10.994;2023-03-04T00:14:04;5.32;;;2.80;;
29906;SDS011;16776;50.958;10.994;2023-03-04T00:16:30;5.95;;;3.30;;
29906;SDS011;16776;50.958;10.994;2023-03-04T00:18:57;5.50;;;3.10;;
29906;SDS011;16776;50.958;10.994;2023-03-04T00:21:23;6.70;;;3.03;;
29906;SDS011;16776;50.958;10.994;2023-03-04T00:23:50;4.47;;;2.88;;
29906;SDS011;16776;50.958;10.994;2023-03-04T00:26:17;5.05;;;2.88;;
29906;SDS011;16776;50.958;10.994;2023-03-04T00:28:45;5.57;;;2.95;;
29906;SDS011;16776;50.958;10.994;2023-03-04T00:31:11;4.40;;;2.92;;
29906;SDS011;16776;50.958;10.994;2023-03-04T00:33:38;5.53;;;3.00;;
29906;SDS011;16776;50.958;10.994;2023-03-04T00:36:07;4.43;;;2.83;;
29906;SDS011;16776;50.958;10.994;2023-03-04T00:38:34;5.03;;;2.78;;
29906;SDS011;16776;50.958;10.994;2023-03-04T00:41:00;6.85;;;3.13;;
29906;SDS011;16776;50.958;10.994;2023-03-04T00:43:27;5.38;;;2.85;;
29906;SDS011;16776;50.958;10.994;2023-03-04T00:45:56;5.10;;;2.70;;
29906;SDS011;16776;50.958;10.994;2023-03-04T00:48:23;5.47;;;2.72;;
29906;SDS011;16776;50.958;10.994;2023-03-04T00:50:50;5.43;;;3.20;;
29906;SDS011;16776;50.958;10.994;2023-03-04T00:53:18;5.35;;;2.85;;
29906;SDS011;16776;50.958;10.994;2023-03-04T00:55:44;4.82;;;3.05;;
29906;SDS011;16776;50.958;10.994;2023-03-04T00:58:11;5.25;;;2.80;;
29906;SDS011;16776;50.958;10.994;2023-03-04T01:00:37;5.63;;;3.00;;
29906;SDS011;16776;50.958;10.994;2023-03-04T01:03:05;5.32;;;3.08;;
29906;SDS011;16776;50.958;10.994;2023-03-04T01:05:32;4.78;;;3.13;;
29906;SDS011;16776;50.958;10.994;2023-03-04T01:08:00;5.25;;;3.25;;
29906;SDS011;16776;50.958;10.994;2023-03-04T01:10:26;6.53;;;3.60;;
29906;SDS011;16776;50.958;10.994;2023-03-04T01:12:53;3.97;;;3.08;;
29906;SDS011;16776;50.958;10.994;2023-03-04T01:15:20;5.05;;;3.28;;
29906;SDS011;16776;50.958;10.994;2023-03-04T01:17:46;5.82;;;3.17;;
29906;SDS011;16776;50.958;10.994;2023-03-04T01:20:14;5.20;;;2.65;;
29906;SDS011;16776;50.958;10.994;2023-03-04T01:22:41;5.32;;;3.25;;
29906;SDS011;16776;50.958;10.994;2023-03-04T01:25:08;5.93;;;3.38;;
29906;SDS011;16776;50.958;10.994;2023-03-04T01:27:35;6.65;;;3.22;;
29906;SDS011;16776;50.958;10.994;2023-03-04T01:30:02;6.70;;;3.85;;
29906;SDS011;16776;50.958;10.994;2023-03-04T01:32:29;5.22;;;3.10;;
29906;SDS011;16776;50.958;10.994;2023-03-04T01:34:56;7.93;;;4.00;;
29906;SDS011;16776;50.958;10.994;2023-03-04T01:37:24;5.93;;;3.28;;
29906;SDS011;16776;50.958;10.994;2023-03-04T01:39:51;6.85;;;3.25;;
29906;SDS011;16776;50.958;10.994;2023-03-04T01:42:18;5.88;;;3.50;;
29906;SDS011;16776;50.958;10.994;2023-03-04T01:44:46;4.55;;;3.50;;
29906;SDS011;16776;50.958;10.994;2023-03-04T01:47:14;4.75;;;2.78;;
29906;SDS011;16776;50.958;10.994;2023-03-04T01:49:41;4.93;;;3.03;;
29906;SDS011;16776;50.958;10.994;2023-03-04T01:52:09;5.75;;;3.75;;
29906;SDS011;16776;50.958;10.994;2023-03-04T01:54:41;8.13;;;4.00;;
29906;SDS011;16776;50.958;10.994;2023-03-04T01:57:13;5.75;;;3.45;;
29906;SDS011;16776;50.958;10.994;2023-03-04T01:59:42;4.68;;;3.15;;
29906;SDS011;16776;50.958;10.994;2023-03-04T02:02:09;6.43;;;3.40;;
29906;SDS011;16776;50.958;10.994;2023-03-04T02:04:36;3.95;;;2.88;;
29906;SDS011;16776;50.958;10.994;2023-03-04T02:07:03;6.32;;;3.08;;
29906;SDS011;16776;50.958;10.994;2023-03-04T02:09:30;4.97;;;3.25;;
29906;SDS011;16776;50.958;10.994;2023-03-04T02:12:01;5.93;;;3.50;;
29906;SDS011;16776;50.958;10.994;2023-03-04T02:14:27;5.65;;;3.00;;
29906;SDS011;16776;50.958;10.994;2023-03-04T02:16:54;5.72;;;3.60;;
29906;SDS011;16776;50.958;10.994;2023-03-04T02:19:23;8.07;;;3.80;;
29906;SDS011;16776;50.958;10.994;2023-03-04T02:21:58;5.60;;;3.45;;
29906;SDS011;16776;50.958;10.994;2023-03-04T02:24:26;4.05;;;3.00;;
29906;SDS011;16776;50.958;10.994;2023-03-04T02:27:00;7.53;;;3.22;;
29906;SDS011;16776;50.958;10.994;2023-03-04T02:29:26;5.88;;;3.10;;
29906;SDS011;16776;50.958;10.994;2023-03-04T02:31:53;6.50;;;3.38;;
29906;SDS011;16776;50.958;10.994;2023-03-04T02:34:21;6.32;;;3.17;;
29906;SDS011;16776;50.958;10.994;2023-03-04T02:36:50;4.55;;;2.78;;
29906;SDS011;16776;50.958;10.994;2023-03-04T02:39:21;4.43;;;2.75;;
29906;SDS011;16776;50.958;10.994;2023-03-04T02:41:51;3.45;;;2.20;;
29906;SDS011;16776;50.958;10.994;2023-03-04T02:44:21;7.80;;;4.30;;
29906;SDS011;16776;50.958;10.994;2023-03-04T02:46:49;4.85;;;3.03;;
29906;SDS011;16776;50.958;10.994;2023-03-04T02:49:17;4.85;;;2.92;;
29906;SDS011;16776;50.958;10.994;2023-03-04T02:51:44;4.85;;;2.90;;
29906;SDS011;16776;50.958;10.994;2023-03-04T02:54:14;6.70;;;3.47;;
29906;SDS011;16776;50.958;10.994;2023-03-04T02:56:44;4.72;;;3.10;;
29906;SDS011;16776;50.958;10.994;2023-03-04T02:59:11;4.15;;;2.72;;
29906;SDS011;16776;50.958;10.994;2023-03-04T03:01:39;4.75;;;3.17;;
29906;SDS011;16776;50.958;10.994;2023-03-04T03:04:06;5.10;;;3.00;;
29906;SDS011;16776;50.958;10.994;2023-03-04T03:06:32;4.50;;;2.85;;
29906;SDS011;16776;50.958;10.994;2023-03-04T03:08:59;4.93;;;3.05;;
29906;SDS011;16776;50.958;10.994;2023-03-04T03:11:25;6.18;;;2.85;;
29906;SDS011;16776;50.958;10.994;2023-03-04T03:13:52;3.45;;;2.22;;
29906;SDS011;16776;50.958;10.994;2023-03-04T03:16:18;4.65;;;2.65;;
29906;SDS011;16776;50.958;10.994;2023-03-04T03:18:46;4.45;;;2.60;;
29906;SDS011;16776;50.958;10.994;2023-03-04T03:21:13;5.03;;;2.65;;
29906;SDS011;16776;50.958;10.994;2023-03-04T03:23:39;5.95;;;2.38;;
29906;SDS011;16776;50.958;10.994;2023-03-04T03:26:07;4.78;;;2.70;;
29906;SDS011;16776;50.958;10.994;2023-03-04T03:28:34;4.47;;;2.47;;
29906;SDS011;16776;50.958;10.994;2023-03-04T03:31:02;3.45;;;2.35;;
29906;SDS011;16776;50.958;10.994;2023-03-04T03:33:29;3.50;;;2.50;;
29906;SDS011;16776;50.958;10.994;2023-03-04T03:35:57;4.70;;;2.47;;
29906;SDS011;16776;50.958;10.994;2023-03-04T03:38:24;4.32;;;2.58;;
29906;SDS011;16776;50.958;10.994;2023-03-04T03:40:51;3.83;;;2.58;;
29906;SDS011;16776;50.958;10.994;2023-03-04T03:43:17;4.38;;;2.60;;
29906;SDS011;16776;50.958;10.994;2023-03-04T03:45:45;4.43;;;2.55;;
29906;SDS011;16776;50.958;10.994;2023-03-04T03:48:11;4.32;;;2.10;;
29906;SDS011;16776;50.958;10.994;2023-03-04T03:50:38;3.45;;;2.42;;
29906;SDS011;16776;50.958;10.994;2023-03-04T03:53:05;6.03;;;2.53;;
29906;SDS011;16776;50.958;10.994;2023-03-04T03:55:32;4.63;;;2.63;;
29906;SDS011;16776;50.958;10.994;2023-03-04T03:57:59;3.85;;;2.50;;
29906;SDS011;16776;50.958;10.994;2023-03-04T04:00:25;3.83;;;2.47;;
29906;SDS011;16776;50.958;10.994;2023-03-04T04:02:52;6.65;;;2.53;;
29906;SDS011;16776;50.958;10.994;2023-03-04T04:05:20;5.57;;;2.28;;
29906;SDS011;16776;50.958;10.994;2023-03-04T04:07:47;3.35;;;1.88;;
29906;SDS011;16776;50.958;10.994;2023-03-04T04:10:15;3.85;;;1.92;;
29906;SDS011;16776;50.958;10.994;2023-03-04T04:12:41;3.40;;;2.10;;
29906;SDS011;16776;50.958;10.994;2023-03-04T04:15:09;5.15;;;2.83;;
29906;SDS011;16776;50.958;10.994;2023-03-04T04:17:36;5.43;;;2.80;;
29906;SDS011;16776;50.958;10.994;2023-03-04T04:20:03;5.07;;;2.65;;
29906;SDS011;16776;50.958;10.994;2023-03-04T04:22:31;4.75;;;2.22;;
29906;SDS011;16776;50.958;10.994;2023-03-04T04:24:58;4.05;;;2.17;;
29906;SDS011;16776;50.958;10.994;2023-03-04T04:27:26;5.07;;;2.03;;
29906;SDS011;16776;50.958;10.994;2023-03-04T04:29:52;4.97;;;2.60;;
29906;SDS011;16776;50.958;10.994;2023-03-04T04:32:19;3.67;;;2.03;;
29906;SDS011;16776;50.958;10.994;2023-03-04T04:34:45;5.45;;;2.13;;
29906;SDS011;16776;50.958;10.994;2023-03-04T04:37:12;6.53;;;2.88;;
29906;SDS011;16776;50.958;10.994;2023-03-04T04:39:38;6.13;;;2.20;;
29906;SDS011;16776;50.958;10.994;2023-03-04T04:42:05;3.97;;;1.88;;
29906;SDS011;16776;50.958;10.994;2023-03-04T04:44:33;3.25;;;1.92;;
29906;SDS011;16776;50.958;10.994;2023-03-04T04:47:00;4.60;;;1.95;;
29906;SDS011;16776;50.958;10.994;2023-03-04T04:49:30;3.88;;;1.92;;
29906;SDS011;16776;50.958;10.994;2023-03-04T04:51:57;5.60;;;1.88;;
29906;SDS011;16776;50.958;10.994;2023-03-04T04:54:23;4.45;;;1.58;;
29906;SDS011;16776;50.958;10.994;2023-03-04T04:56:50;3.00;;;1.52;;
29906;SDS011;16776;50.958;10.994;2023-03-04T04:59:16;4.82;;;1.95;;
29906;SDS011;16776;50.958;10.994;2023-03-04T05:01:44;5.93;;;2.17;;
29906;SDS011;16776;50.958;10.994;2023-03-04T05:04:11;4.50;;;2.17;;
29906;SDS011;16776;50.958;10.994;2023-03-04T05:06:38;2.80;;;1.60;;
29906;SDS011;16776;50.958;10.994;2023-03-04T05:09:04;4.47;;;1.92;;
29906;SDS011;16776;50.958;10.994;2023-03-04T05:11:31;4.50;;;1.77;;
29906;SDS011;16776;50.958;10.994;2023-03-04T05:13:58;3.78;;;1.55;;
29906;SDS011;16776;50.958;10.994;2023-03-04T05:16:24;4.00;;;1.73;;
29906;SDS011;16776;50.958;10.994;2023-03-04T05:18:52;5.63;;;2.45;;
29906;SDS011;16776;50.958;10.994;2023-03-04T05:21:19;4.38;;;1.65;;
29906;SDS011;16776;50.958;10.994;2023-03-04T05:23:45;4.95;;;2.13;;
29906;SDS011;16776;50.958;10.994;2023-03-04T05:26:13;5.05;;;1.92;;
29906;SDS011;16776;50.958;10.994;2023-03-04T05:28:40;5.53;;;1.90;;
29906;SDS011;16776;50.958;10.994;2023-03-04T05:31:07;3.42;;;1.88;;
29906;SDS011;16776;50.958;10.994;2023-03-04T05:33:34;4.40;;;1.70;;
29906;SDS011;16776;50.958;10.994;2023-03-04T05:36:02;2.53;;;1.50;;
29906;SDS011;16776;50.958;10.994;2023-03-04T05:38:30;4.90;;;1.98;;
29906;SDS011;16776;50.958;10.994;2023-03-04T05:40:57;3.70;;;1.67;;
29906;SDS011;16776;50.958;10.994;2023-03-04T05:43:25;5.47;;;1.50;;
29906;SDS011;16776;50.958;10.994;2023-03-04T05:45:52;4.40;;;1.40;;
29906;SDS011;16776;50.958;10.994;2023-03-04T05:48:19;2.30;;;1.13;;
29906;SDS011;16776;50.958;10.994;2023-03-04T05:50:46;5.88;;;2.00;;
29906;SDS011;16776;50.958;10.994;2023-03-04T05:53:19;3.33;;;1.40;;
29906;SDS011;16776;50.958;10.994;2023-03-04T05:55:45;3.92;;;1.50;;
29906;SDS011;16776;50.958;10.994;2023-03-04T05:58:12;5.40;;;1.60;;
29906;SDS011;16776;50.958;10.994;2023-03-04T06:00:39;3.15;;;1.30;;
29906;SDS011;16776;50.958;10.994;2023-03-04T06:03:05;2.80;;;1.02;;
29906;SDS011;16776;50.958;10.994;2023-03-04T06:05:32;4.03;;;1.45;;
29906;SDS011;16776;50.958;10.994;2023-03-04T06:07:59;1.92;;;1.25;;
29906;SDS011;16776;50.958;10.994;2023-03-04T06:10:26;5.13;;;1.45;;
29906;SDS011;16776;50.958;10.994;2023-03-04T06:12:53;2.90;;;1.50;;
29906;SDS011;16776;50.958;10.994;2023-03-04T06:15:20;4.80;;;1.70;;
29906;SDS011;16776;50.958;10.994;2023-03-04T06:17:46;4.75;;;1.70;;
29906;SDS011;16776;50.958;10.994;2023-03-04T06:20:13;7.07;;;2.05;;
29906;SDS011;16776;50.958;10.994;2023-03-04T06:22:39;7.22;;;1.70;;
29906;SDS011;16776;50.958;10.994;2023-03-04T06:25:06;2.88;;;1.35;;
29906;SDS011;16776;50.958;10.994;2023-03-04T06:27:35;3.00;;;1.35;;
29906;SDS011;16776;50.958;10.994;2023-03-04T06:30:02;4.53;;;1.90;;
29906;SDS011;16776;50.958;10.994;2023-03-04T06:32:30;3.83;;;1.40;;
29906;SDS011;16776;50.958;10.994;2023-03-04T06:34:57;2.22;;;1.25;;
29906;SDS011;16776;50.958;10.994;2023-03-04T06:37:23;3.97;;;1.70;;
29906;SDS011;16776;50.958;10.994;2023-03-04T06:39:50;2.85;;;1.42;;
29906;SDS011;16776;50.958;10.994;2023-03-04T06:42:16;4.25;;;1.65;;
29906;SDS011;16776;50.958;10.994;2023-03-04T06:44:44;2.00;;;1.20;;
29906;SDS011;16776;50.958;10.994;2023-03-04T06:47:11;5.72;;;1.60;;
29906;SDS011;16776;50.958;10.994;2023-03-04T06:49:37;3.58;;;1.23;;
29906;SDS011;16776;50.958;10.994;2023-03-04T06:52:04;3.97;;;1.27;;
29906;SDS011;16776;50.958;10.994;2023-03-04T06:54:31;3.58;;;1.70;;
29906;SDS011;16776;50.958;10.994;2023-03-04T06:56:57;2.65;;;1.25;;
29906;SDS011;16776;50.958;10.994;2023-03-04T06:59:24;1.88;;;1.27;;
29906;SDS011;16776;50.958;10.994;2023-03-04T07:01:52;3.05;;;1.38;;
29906;SDS011;16776;50.958;10.994;2023-03-04T07:04:19;2.42;;;1.10;;
29906;SDS011;16776;50.958;10.994;2023-03-04T07:06:46;4.28;;;1.60;;
29906;SDS011;16776;50.958;10.994;2023-03-04T07:09:14;4.05;;;1.58;;
29906;SDS011;16776;50.958;10.994;2023-03-04T07:11:41;2.80;;;1.20;;
29906;SDS011;16776;50.958;10.994;2023-03-04T07:14:07;3.85;;;1.08;;
29906;SDS011;16776;50.958;10.994;2023-03-04T07:16:34;3.10;;;1.27;;
29906;SDS011;16776;50.958;10.994;2023-03-04T07:19:02;2.67;;;1.20;;
29906;SDS011;16776;50.958;10.994;2023-03-04T07:21:29;3.67;;;1.50;;
29906;SDS011;16776;50.958;10.994;2023-03-04T07:23:56;2.92;;;1.23;;
29906;SDS011;16776;50.958;10.994;2023-03-04T07:26:22;1.73;;;1.40;;
29906;SDS011;16776;50.958;10.994;2023-03-04T07:28:49;4.43;;;1.40;;
29906;SDS011;16776;50.958;10.994;2023-03-04T07:31:19;4.78;;;1.08;;
29906;SDS011;16776;50.958;10.994;2023-03-04T07:33:46;2.33;;;0.93;;
29906;SDS011;16776;50.958;10.994;2023-03-04T07:36:14;5.22;;;1.52;;
29906;SDS011;16776;50.958;10.994;2023-03-04T07:38:43;2.63;;;1.60;;
29906;SDS011;16776;50.958;10.994;2023-03-04T07:41:10;3.63;;;1.50;;
29906;SDS011;16776;50.958;10.994;2023-03-04T07:43:37;2.92;;;1.20;;
29906;SDS011;16776;50.958;10.994;2023-03-04T07:46:04;2.88;;;1.52;;
29906;SDS011;16776;50.958;10.994;2023-03-04T07:48:30;4.93;;;1.30;;
29906;SDS011;16776;50.958;10.994;2023-03-04T07:51:04;2.10;;;0.90;;
29906;SDS011;16776;50.958;10.994;2023-03-04T07:53:34;2.05;;;1.40;;
29906;SDS011;16776;50.958;10.994;2023-03-04T07:56:01;4.13;;;1.00;;
29906;SDS011;16776;50.958;10.994;2023-03-04T07:58:28;3.55;;;0.70;;
29906;SDS011;16776;50.958;10.994;2023-03-04T08:00:55;3.17;;;1.15;;
29906;SDS011;16776;50.958;10.994;2023-03-04T08:03:21;2.28;;;1.20;;
29906;SDS011;16776;50.958;10.994;2023-03-04T08:05:48;1.75;;;0.70;;
29906;SDS011;16776;50.958;10.994;2023-03-04T08:08:15;4.13;;;0.90;;
29906;SDS011;16776;50.958;10.994;2023-03-04T08:10:43;5.32;;;1.50;;
29906;SDS011;16776;50.958;10.994;2023-03-04T08:13:10;2.45;;;1.17;;
29906;SDS011;16776;50.958;10.994;2023-03-04T08:15:39;2.65;;;1.20;;
29906;SDS011;16776;50.958;10.994;2023-03-04T08:18:06;1.48;;;0.73;;
29906;SDS011;16776;50.958;10.994;2023-03-04T08:20:36;0.77;;;0.40;;
29906;SDS011;16776;50.958;10.994;2023-03-04T08:23:07;1.70;;;0.73;;
29906;SDS011;16776;50.958;10.994;2023-03-04T08:25:33;2.88;;;0.82;;
29906;SDS011;16776;50.958;10.994;2023-03-04T08:28:01;2.08;;;0.90;;
29906;SDS011;16776;50.958;10.994;2023-03-04T08:30:28;1.63;;;0.90;;
29906;SDS011;16776;50.958;10.994;2023-03-04T08:32:54;2.33;;;0.90;;
29906;SDS011;16776;50.958;10.994;2023-03-04T08:35:21;3.60;;;0.95;;
29906;SDS011;16776;50.958;10.994;2023-03-04T08:37:51;1.60;;;0.65;;
29906;SDS011;16776;50.958;10.994;2023-03-04T08:40:17;1.73;;;0.57;;
29906;SDS011;16776;50.958;10.994;2023-03-04T08:42:44;1.65;;;0.50;;
29906;SDS011;16776;50.958;10.994;2023-03-04T08:45:12;4.18;;;0.85;;
29906;SDS011;16776;50.958;10.994;2023-03-04T08:47:39;1.77;;;0.95;;
29906;SDS011;16776;50.958;10.994;2023-03-04T08:50:06;3.33;;;0.70;;
29906;SDS011;16776;50.958;10.994;2023-03-04T08:52:33;1.08;;;0.52;;
29906;SDS011;16776;50.958;10.994;2023-03-04T08:55:00;1.85;;;0.80;;
29906;SDS011;16776;50.958;10.994;2023-03-04T08:57:26;2.90;;;0.70;;
29906;SDS011;16776;50.958;10.994;2023-03-04T08:59:53;1.83;;;0.50;;
29906;SDS011;16776;50.958;10.994;2023-03-04T09:02:21;2.83;;;0.70;;
29906;SDS011;16776;50.958;10.994;2023-03-04T09:04:48;1.48;;;0.73;;
29906;SDS011;16776;50.958;10.994;2023-03-04T09:07:14;2.03;;;0.73;;
29906;SDS011;16776;50.958;10.994;2023-03-04T09:09:41;1.92;;;1.00;;
29906;SDS011;16776;50.958;10.994;2023-03-04T09:12:07;2.97;;;0.77;;
29906;SDS011;16776;50.958;10.994;2023-03-04T09:14:34;1.38;;;0.60;;
29906;SDS011;16776;50.958;10.994;2023-03-04T09:17:01;2.63;;;1.00;;
29906;SDS011;16776;50.958;10.994;2023-03-04T09:19:29;2.28;;;0.52;;
29906;SDS011;16776;50.958;10.994;2023-03-04T09:21:55;2.25;;;0.55;;
29906;SDS011;16776;50.958;10.994;2023-03-04T09:24:23;1.83;;;0.70;;
29906;SDS011;16776;50.958;10.994;2023-03-04T09:26:51;1.23;;;0.50;;
29906;SDS011;16776;50.958;10.994;2023-03-04T09:29:19;3.47;;;0.85;;
29906;SDS011;16776;50.958;10.994;2023-03-04T09:31:45;3.20;;;0.90;;
29906;SDS011;16776;50.958;10.994;2023-03-04T09:34:12;1.80;;;1.10;;
29906;SDS011;16776;50.958;10.994;2023-03-04T09:36:40;2.35;;;1.05;;
29906;SDS011;16776;50.958;10.994;2023-03-04T09:39:10;1.90;;;0.90;;
29906;SDS011;16776;50.958;10.994;2023-03-04T09:41:40;2.60;;;1.10;;
29906;SDS011;16776;50.958;10.994;2023-03-04T09:44:12;2.30;;;0.98;;
29906;SDS011;16776;50.958;10.994;2023-03-04T09:46:45;1.92;;;0.70;;
29906;SDS011;16776;50.958;10.994;2023-03-04T09:49:13;1.80;;;1.00;;
29906;SDS011;16776;50.958;10.994;2023-03-04T09:51:47;2.45;;;1.13;;
29906;SDS011;16776;50.958;10.994;2023-03-04T09:54:25;3.22;;;0.75;;
29906;SDS011;16776;50.958;10.994;2023-03-04T09:57:09;2.25;;;0.55;;
29906;SDS011;16776;50.958;10.994;2023-03-04T09:59:46;2.60;;;0.70;;
29906;SDS011;16776;50.958;10.994;2023-03-04T10:02:20;1.35;;;0.38;;
29906;SDS011;16776;50.958;10.994;2023-03-04T10:04:58;0.65;;;0.32;;
29906;SDS011;16776;50.958;10.994;2023-03-04T10:07:28;0.40;;;0.40;;
29906;SDS011;16776;50.958;10.994;2023-03-04T10:12:29;0.25;;;0.20;;
29906;SDS011;16776;50.958;10.994;2023-03-04T10:15:00;1.10;;;0.40;;
29906;SDS011;16776;50.958;10.994;2023-03-04T10:17:32;0.57;;;0.28;;
29906;SDS011;16776;50.958;10.994;2023-03-04T10:20:03;0.85;;;0.52;;
29906;SDS011;16776;50.958;10.994;2023-03-04T10:22:34;1.65;;;0.20;;
29906;SDS011;16776;50.958;10.994;2023-03-04T10:25:14;0.85;;;0.30;;
29906;SDS011;16776;50.958;10.994;2023-03-04T10:27:46;0.38;;;0.38;;
29906;SDS011;16776;50.958;10.994;2023-03-04T10:30:17;1.00;;;0.35;;
29906;SDS011;16776;50.958;10.994;2023-03-04T10:32:47;0.55;;;0.35;;
29906;SDS011;16776;50.958;10.994;2023-03-04T10:35:14;0.55;;;0.30;;
29906;SDS011;16776;50.958;10.994;2023-03-04T10:37:46;1.25;;;0.40;;
29906;SDS011;16776;50.958;10.994;2023-03-04T10:40:19;0.70;;;0.30;;
29906;SDS011;16776;50.958;10.994;2023-03-04T10:45:18;1.00;;;0.20;;
29906;SDS011;16776;50.958;10.994;2023-03-04T10:50:20;0.22;;;0.20;;
29906;SDS011;16776;50.958;10.994;2023-03-04T10:52:49;1.73;;;0.40;;
29906;SDS011;16776;50.958;10.994;2023-03-04T10:55:18;1.23;;;0.40;;
29906;SDS011;16776;50.958;10.994;2023-03-04T10:57:47;0.93;;;0.38;;
29906;SDS011;16776;50.958;10.994;2023-03-04T11:00:20;0.35;;;0.28;;
29906;SDS011;16776;50.958;10.994;2023-03-04T11:02:51;1.60;;;0.32;;
29906;SDS011;16776;50.958;10.994;2023-03-04T11:05:18;1.45;;;0.45;;
29906;SDS011;16776;50.958;10.994;2023-03-04T11:07:48;0.98;;;0.30;;
29906;SDS011;16776;50.958;10.994;2023-03-04T11:10:18;0.57;;;0.40;;
29906;SDS011;16776;50.958;10.994;2023-03-04T11:12:49;0.25;;;0.25;;
29906;SDS011;16776;50.958;10.994;2023-03-04T11:15:19;2.03;;;0.20;;
29906;SDS011;16776;50.958;10.994;2023-03-04T11:17:52;0.10;;;0.10;;
29906;SDS011;16776;50.958;10.994;2023-03-04T11:20:26;0.30;;;0.30;;
29906;SDS011;16776;50.958;10.994;2023-03-04T11:22:58;0.47;;;0.30;;
29906;SDS011;16776;50.958;10.994;2023-03-04T11:25:30;0.88;;;0.47;;
29906;SDS011;16776;50.958;10.994;2023-03-04T11:28:00;0.55;;;0.40;;
29906;SDS011;16776;50.958;10.994;2023-03-04T11:30:32;2.30;;;0.50;;
29906;SDS011;16776;50.958;10.994;2023-03-04T11:33:06;0.50;;;0.35;;
29906;SDS011;16776;50.958;10.994;2023-03-04T11:35:41;1.27;;;0.30;;
29906;SDS011;16776;50.958;10.994;2023-03-04T11:38:16;0.85;;;0.40;;
29906;SDS011;16776;50.958;10.994;2023-03-04T11:40:44;0.68;;;0.40;;
29906;SDS011;16776;50.958;10.994;2023-03-04T11:43:15;1.55;;;0.40;;
29906;SDS011;16776;50.958;10.994;2023-03-04T11:45:54;0.45;;;0.28;;
29906;SDS011;16776;50.958;10.994;2023-03-04T11:48:35;0.43;;;0.40;;
29906;SDS011;16776;50.958;10.994;2023-03-04T11:51:12;0.20;;;0.20;;
29906;SDS011;16776;50.958;10.994;2023-03-04T11:53:56;2.42;;;0.30;;
29906;SDS011;16776;50.958;10.994;2023-03-04T11:56:33;0.25;;;0.20;;
29906;SDS011;16776;50.958;10.994;2023-03-04T12:02:15;0.60;;;0.30;;
29906;SDS011;16776;50.958;10.994;2023-03-04T12:07:53;1.20;;;0.20;;
29906;SDS011;16776;50.958;10.994;2023-03-04T12:10:37;0.88;;;0.47;;
29906;SDS011;16776;50.958;10.994;2023-03-04T12:16:26;0.60;;;0.50;;
29906;SDS011;16776;50.958;10.994;2023-03-04T12:19:05;1.17;;;0.30;;
29906;SDS011;16776;50.958;10.994;2023-03-04T12:21:50;0.52;;;0.20;;
29906;SDS011;16776;50.958;10.994;2023-03-04T12:24:32;0.57;;;0.40;;
29906;SDS011;16776;50.958;10.994;2023-03-04T12:27:10;0.30;;;0.30;;
29906;SDS011;16776;50.958;10.994;2023-03-04T12:29:47;0.35;;;0.20;;
29906;SDS011;16776;50.958;10.994;2023-03-04T12:32:22;0.47;;;0.30;;
29906;SDS011;16776;50.958;10.994;2023-03-04T12:37:52;0.63;;;0.30;;
29906;SDS011;16776;50.958;10.994;2023-03-04T12:40:35;1.15;;;0.28;;
29906;SDS011;16776;50.958;10.994;2023-03-04T12:46:05;0.40;;;0.30;;
29906;SDS011;16776;50.958;10.994;2023-03-04T12:48:41;0.30;;;0.30;;
29906;SDS011;16776;50.958;10.994;2023-03-04T12:51:21;0.43;;;0.40;;
29906;SDS011;16776;50.958;10.994;2023-03-04T12:53:57;0.88;;;0.38;;
29906;SDS011;16776;50.958;10.994;2023-03-04T12:56:39;0.47;;;0.30;;
29906;SDS011;16776;50.958;10.994;2023-03-04T12:59:13;0.43;;;0.22;;
29906;SDS011;16776;50.958;10.994;2023-03-04T13:01:43;0.35;;;0.20;;
29906;SDS011;16776;50.958;10.994;2023-03-04T13:04:17;1.88;;;0.45;;
29906;SDS011;16776;50.958;10.994;2023-03-04T13:09:25;1.75;;;0.73;;
29906;SDS011;16776;50.958;10.994;2023-03-04T13:12:01;1.38;;;0.40;;
29906;SDS011;16776;50.958;10.994;2023-03-04T13:14:31;1.75;;;0.30;;
29906;SDS011;16776;50.958;10.994;2023-03-04T13:17:00;1.17;;;0.38;;
29906;SDS011;16776;50.958;10.994;2023-03-04T13:19:47;3.28;;;0.35;;
29906;SDS011;16776;50.958;10.994;2023-03-04T13:22:25;0.57;;;0.40;;
29906;SDS011;16776;50.958;10.994;2023-03-04T13:25:01;0.55;;;0.20;;
29906;SDS011;16776;50.958;10.994;2023-03-04T13:28:23;0.68;;;0.30;;
29906;SDS011;16776;50.958;10.994;2023-03-04T13:33:58;0.30;;;0.30;;
29906;SDS011;16776;50.958;10.994;2023-03-04T13:36:33;0.82;;;0.60;;
29906;SDS011;16776;50.958;10.994;2023-03-04T13:45:28;0.43;;;0.40;;
29906;SDS011;16776;50.958;10.994;2023-03-04T13:47:59;0.50;;;0.45;;
29906;SDS011;16776;50.958;10.994;2023-03-04T13:50:28;0.20;;;0.20;;
29906;SDS011;16776;50.958;10.994;2023-03-04T13:56:23;0.40;;;0.40;;
29906;SDS011;16776;50.958;10.994;2023-03-04T14:01:58;0.38;;;0.30;;
29906;SDS011;16776;50.958;10.994;2023-03-04T14:04:29;0.90;;;0.50;;
29906;SDS011;16776;50.958;10.994;2023-03-04T14:06:59;0.30;;;0.22;;
29906;SDS011;16776;50.958;10.994;2023-03-04T14:09:27;0.20;;;0.20;;
29906;SDS011;16776;50.958;10.994;2023-03-04T14:11:56;0.65;;;0.30;;
29906;SDS011;16776;50.958;10.994;2023-03-04T14:14:27;0.40;;;0.30;;
29906;SDS011;16776;50.958;10.994;2023-03-04T14:16:56;0.28;;;0.28;;
29906;SDS011;16776;50.958;10.994;2023-03-04T14:19:26;0.25;;;0.25;;
29906;SDS011;16776;50.958;10.994;2023-03-04T14:22:00;1.95;;;0.47;;
29906;SDS011;16776;50.958;10.994;2023-03-04T14:24:27;0.38;;;0.32;;
29906;SDS011;16776;50.958;10.994;2023-03-04T14:27:03;0.25;;;0.25;;
29906;SDS011;16776;50.958;10.994;2023-03-04T14:29:36;0.20;;;0.20;;
29906;SDS011;16776;50.958;10.994;2023-03-04T14:32:03;0.60;;;0.30;;
29906;SDS011;16776;50.958;10.994;2023-03-04T14:34:33;0.20;;;0.20;;
29906;SDS011;16776;50.958;10.994;2023-03-04T14:37:03;0.85;;;0.30;;
29906;SDS011;16776;50.958;10.994;2023-03-04T14:39:44;0.40;;;0.20;;
29906;SDS011;16776;50.958;10.994;2023-03-04T14:42:15;0.20;;;0.20;;
29906;SDS011;16776;50.958;10.994;2023-03-04T14:44:43;0.60;;;0.60;;
29906;SDS011;16776;50.958;10.994;2023-03-04T14:47:14;0.30;;;0.25;;
29906;SDS011;16776;50.958;10.994;2023-03-04T14:49:46;0.60;;;0.60;;
29906;SDS011;16776;50.958;10.994;2023-03-04T14:52:26;0.28;;;0.28;;
29906;SDS011;16776;50.958;10.994;2023-03-04T14:55:02;0.45;;;0.30;;
29906;SDS011;16776;50.958;10.994;2023-03-04T14:57:42;0.75;;;0.40;;
29906;SDS011;16776;50.958;10.994;2023-03-04T15:00:13;0.40;;;0.30;;
29906;SDS011;16776;50.958;10.994;2023-03-04T15:02:46;0.22;;;0.20;;
29906;SDS011;16776;50.958;10.994;2023-03-04T15:07:48;0.35;;;0.30;;
29906;SDS011;16776;50.958;10.994;2023-03-04T15:10:19;0.83;;;0.40;;
29906;SDS011;16776;50.958;10.994;2023-03-04T15:12:49;0.20;;;0.20;;
29906;SDS011;16776;50.958;10.994;2023-03-04T15:15:31;0.38;;;0.38;;
29906;SDS011;16776;50.958;10.994;2023-03-04T15:18:00;2.03;;;0.40;;
29906;SDS011;16776;50.958;10.994;2023-03-04T15:20:31;0.30;;;0.30;;
29906;SDS011;16776;50.958;10.994;2023-03-04T15:22:59;0.30;;;0.30;;
29906;SDS011;16776;50.958;10.994;2023-03-04T15:25:31;0.30;;;0.30;;
29906;SDS011;16776;50.958;10.994;2023-03-04T15:27:58;0.30;;;0.30;;
29906;SDS011;16776;50.958;10.994;2023-03-04T15:30:26;0.30;;;0.30;;